Time;durP1;ratioP1;P1;durP2;ratioP2;P2;SDS_P1;SDS_P2;PMS_P1;PMS_P2;Temp;Humidity;BMP_temperature;BMP_pressure;BME280_temperature;BME280_humidity;BME280_pressure;Samples;Min_cycle;Max_cycle;Signal;HPM_P1;HPM_P2
2023/08/31 00:00:44;;;;;;;0.00;0.00;;;13.30;83.60;;;;;;5013331;28;20044;-69
2023/08/31 00:03:10;;;;;;;0.00;0.00;;;13.30;83.60;;;;;;5031075;28;20678;-69
2023/08/31 00:05:43;;;;;;;0.00;0.00;;;13.30;83.50;;;;;;5029996;28;20073;-69
2023/08/31 00:08:11;;;;;;;0.00;0.00;;;13.30;83.60;;;;;;5030920;28;20120;-69
2023/08/31 00:10:37;;;;;;;0.00;0.00;;;13.30;83.60;;;;;;5019470;28;20052;-69
2023/08/31 00:13:03;;;;;;;0.00;0.00;;;13.20;83.90;;;;;;5011172;28;20264;-69
2023/08/31 00:15:32;;;;;;;0.10;0.10;;;13.20;83.90;;;;;;5010925;28;20044;-69
2023/08/31 00:17:58;;;;;;;0.00;0.00;;;13.20;83.90;;;;;;5011129;28;20053;-69
2023/08/31 00:20:24;;;;;;;0.00;0.00;;;13.30;84.00;;;;;;5011194;28;20097;-69
2023/08/31 00:22:49;;;;;;;0.00;0.00;;;13.20;84.30;;;;;;5012585;28;20081;-69
2023/08/31 00:25:15;;;;;;;0.00;0.00;;;13.20;84.30;;;;;;5010854;28;20465;-69
2023/08/31 00:27:40;;;;;;;0.00;0.00;;;13.20;84.20;;;;;;5030444;28;20099;-69
2023/08/31 00:30:08;;;;;;;0.00;0.00;;;13.20;84.00;;;;;;5030587;28;20069;-69
2023/08/31 00:32:34;;;;;;;0.10;0.10;;;13.10;83.80;;;;;;5023317;28;20045;-69
2023/08/31 00:35:00;;;;;;;0.00;0.00;;;13.10;83.60;;;;;;5030122;28;20397;-69
2023/08/31 00:37:25;;;;;;;0.00;0.00;;;13.10;83.50;;;;;;5030545;28;20049;-69
2023/08/31 00:39:52;;;;;;;0.00;0.00;;;13.00;83.80;;;;;;5030606;28;20501;-69
2023/08/31 00:42:18;;;;;;;0.00;0.00;;;13.00;84.20;;;;;;5030201;28;20049;-69
2023/08/31 00:44:46;;;;;;;0.00;0.00;;;12.90;84.30;;;;;;5030293;28;20049;-69
2023/08/31 00:47:12;;;;;;;0.00;0.00;;;12.90;84.30;;;;;;5023411;28;20092;-69
2023/08/31 00:49:40;;;;;;;0.00;0.00;;;12.90;84.60;;;;;;5010488;28;20117;-70
2023/08/31 00:52:06;;;;;;;0.00;0.00;;;13.00;84.60;;;;;;5010281;28;20507;-69
2023/08/31 00:54:32;;;;;;;0.00;0.00;;;12.90;84.80;;;;;;5026073;28;20053;-69
2023/08/31 00:56:57;;;;;;;0.00;0.00;;;12.90;85.00;;;;;;5023904;28;20042;-69
2023/08/31 00:59:24;;;;;;;0.00;0.00;;;13.00;85.00;;;;;;5009114;28;20168;-69
2023/08/31 01:02:07;;;;;;;0.00;0.00;;;13.00;84.60;;;;;;5022181;28;20087;-69
2023/08/31 01:04:55;;;;;;;0.00;0.00;;;12.90;84.90;;;;;;5029904;28;20052;-69
2023/08/31 01:07:43;;;;;;;0.00;0.00;;;12.90;85.10;;;;;;5029728;28;20453;-69
2023/08/31 01:10:27;;;;;;;0.00;0.00;;;12.90;85.10;;;;;;5003383;28;20041;-69
2023/08/31 01:13:15;;;;;;;0.00;0.00;;;13.00;85.80;;;;;;5029897;28;20052;-69
2023/08/31 01:15:47;;;;;;;0.00;0.00;;;13.00;85.80;;;;;;5029906;28;20054;-69
2023/08/31 01:18:17;;;;;;;0.00;0.00;;;13.00;85.90;;;;;;5029752;28;20052;-69
2023/08/31 01:20:48;;;;;;;0.00;0.00;;;12.90;85.70;;;;;;5015475;28;20034;-69
2023/08/31 01:23:18;;;;;;;0.00;0.00;;;13.00;86.10;;;;;;5026141;28;20133;-69
2023/08/31 01:25:44;;;;;;;0.00;0.00;;;13.00;86.10;;;;;;5022616;28;20050;-70
2023/08/31 01:28:11;;;;;;;0.00;0.00;;;12.90;85.90;;;;;;5029156;28;20131;-69
2023/08/31 01:30:36;;;;;;;0.00;0.00;;;13.00;86.10;;;;;;5007803;28;20042;-69
2023/08/31 01:33:02;;;;;;;0.00;0.00;;;13.00;86.10;;;;;;5028943;28;20052;-69
2023/08/31 01:35:46;;;;;;;0.00;0.00;;;13.00;86.10;;;;;;5029083;28;20060;-70
2023/08/31 01:38:17;;;;;;;0.00;0.00;;;13.00;86.20;;;;;;5011777;28;20050;-69
2023/08/31 01:40:53;;;;;;;0.00;0.00;;;13.10;86.30;;;;;;5028979;28;20049;-69
2023/08/31 01:43:21;;;;;;;0.00;0.00;;;13.00;86.40;;;;;;5029573;28;20045;-69
2023/08/31 01:45:47;;;;;;;0.00;0.00;;;13.00;86.90;;;;;;5028795;28;20049;-69
2023/08/31 01:48:14;;;;;;;0.00;0.00;;;13.00;86.90;;;;;;5029123;28;20050;-69
2023/08/31 01:50:40;;;;;;;0.00;0.00;;;13.10;86.90;;;;;;5025372;28;20128;-69
2023/08/31 01:53:06;;;;;;;0.00;0.00;;;13.10;86.60;;;;;;5029077;28;20137;-69
2023/08/31 01:55:32;;;;;;;0.00;0.00;;;13.00;86.80;;;;;;5026886;28;20076;-69
2023/08/31 01:57:58;;;;;;;0.00;0.00;;;13.10;86.90;;;;;;5009007;28;20824;-69
2023/08/31 02:00:25;;;;;;;0.00;0.00;;;12.90;87.20;;;;;;5021995;28;20076;-69
2023/08/31 02:02:51;;;;;;;0.00;0.00;;;13.00;87.40;;;;;;5029169;28;20538;-69
2023/08/31 02:05:17;;;;;;;0.00;0.00;;;12.90;87.70;;;;;;5029251;28;20053;-69
2023/08/31 02:07:42;;;;;;;0.35;0.35;;;13.00;87.60;;;;;;5027816;28;20037;-69
2023/08/31 02:10:08;;;;;;;0.00;0.00;;;12.90;87.70;;;;;;5029088;28;20555;-69
2023/08/31 02:12:36;;;;;;;0.00;0.00;;;12.90;88.00;;;;;;5030283;28;20073;-69
2023/08/31 02:15:02;;;;;;;0.00;0.00;;;12.90;88.00;;;;;;5031781;28;20418;-69
2023/08/31 02:17:27;;;;;;;0.00;0.00;;;12.90;88.10;;;;;;5033295;28;20088;-70
2023/08/31 02:19:53;;;;;;;0.00;0.00;;;12.90;88.00;;;;;;5033336;28;20089;-69
2023/08/31 02:22:19;;;;;;;0.00;0.00;;;12.90;88.00;;;;;;5032936;28;20510;-69
2023/08/31 02:24:45;;;;;;;0.00;0.00;;;12.90;87.70;;;;;;5028757;28;20108;-69
2023/08/31 02:27:11;;;;;;;0.00;0.00;;;13.00;88.10;;;;;;4995459;28;20054;-69
2023/08/31 02:29:36;;;;;;;0.00;0.00;;;12.90;88.10;;;;;;5013371;28;20482;-69
2023/08/31 02:32:05;;;;;;;0.00;0.00;;;13.00;88.20;;;;;;5026951;28;20052;-67
2023/08/31 02:34:30;;;;;;;0.00;0.00;;;13.00;88.10;;;;;;5029272;28;20116;-68
2023/08/31 02:36:56;;;;;;;0.00;0.00;;;13.00;88.20;;;;;;5028062;28;20137;-68
2023/08/31 02:39:21;;;;;;;0.00;0.00;;;13.00;88.00;;;;;;5032459;28;20045;-67
2023/08/31 02:41:47;;;;;;;0.00;0.00;;;13.00;88.10;;;;;;5030797;28;20573;-68
2023/08/31 02:44:12;;;;;;;0.00;0.00;;;13.00;87.90;;;;;;5032521;28;20120;-67
2023/08/31 02:46:38;;;;;;;0.00;0.00;;;13.00;88.50;;;;;;5032814;28;20037;-67
2023/08/31 02:49:04;;;;;;;0.00;0.00;;;13.10;88.10;;;;;;5031699;28;20046;-70
2023/08/31 02:51:30;;;;;;;0.00;0.00;;;13.10;88.40;;;;;;5031781;28;20049;-68
2023/08/31 02:53:55;;;;;;;0.00;0.00;;;13.10;88.40;;;;;;5032231;28;20104;-67
2023/08/31 02:56:21;;;;;;;0.52;0.45;;;13.10;89.10;;;;;;5031689;28;20465;-68
2023/08/31 02:58:46;;;;;;;0.00;0.00;;;13.10;89.40;;;;;;5032123;28;20045;-67
2023/08/31 03:01:16;;;;;;;0.00;0.00;;;13.10;89.50;;;;;;5031340;28;20472;-68
2023/08/31 03:03:42;;;;;;;0.00;0.00;;;13.10;89.40;;;;;;5027526;28;20041;-67
2023/08/31 03:06:09;;;;;;;0.00;0.00;;;13.10;89.40;;;;;;5031627;28;20052;-68
2023/08/31 03:08:37;;;;;;;0.00;0.00;;;13.10;89.60;;;;;;5031524;28;20046;-68
2023/08/31 03:11:04;;;;;;;0.00;0.00;;;13.20;89.70;;;;;;5023611;28;20049;-68
2023/08/31 03:13:31;;;;;;;0.00;0.00;;;13.20;89.50;;;;;;5031151;28;20052;-68
2023/08/31 03:15:57;;;;;;;0.00;0.00;;;13.20;89.60;;;;;;5031876;28;20404;-68
2023/08/31 03:18:22;;;;;;;0.00;0.00;;;13.20;89.80;;;;;;5032042;28;20146;-68
2023/08/31 03:20:48;;;;;;;0.00;0.00;;;13.20;89.90;;;;;;5031428;28;20041;-68
2023/08/31 03:23:14;;;;;;;0.00;0.00;;;13.20;90.10;;;;;;5031404;28;20073;-68
2023/08/31 03:25:40;;;;;;;0.00;0.00;;;13.20;90.00;;;;;;5018840;28;20430;-68
2023/08/31 03:28:05;;;;;;;0.00;0.00;;;13.20;90.00;;;;;;5018378;28;20033;-68
2023/08/31 03:30:31;;;;;;;0.00;0.00;;;13.10;90.20;;;;;;5031620;28;20045;-68
2023/08/31 03:32:57;;;;;;;0.00;0.00;;;13.10;90.10;;;;;;5031773;28;20440;-68
2023/08/31 03:35:26;;;;;;;0.00;0.00;;;13.10;90.00;;;;;;5031550;28;20406;-68
2023/08/31 03:37:55;;;;;;;0.00;0.00;;;13.10;90.10;;;;;;5031462;28;20144;-68
2023/08/31 03:40:22;;;;;;;0.00;0.00;;;13.10;90.00;;;;;;5013808;28;20052;-68
2023/08/31 03:42:49;;;;;;;0.00;0.00;;;13.10;90.00;;;;;;5013635;28;20076;-68
2023/08/31 03:45:14;;;;;;;0.00;0.00;;;13.10;89.90;;;;;;5030752;28;20060;-68
2023/08/31 03:47:40;;;;;;;0.00;0.00;;;13.10;89.90;;;;;;5022057;28;20034;-68
2023/08/31 03:50:06;;;;;;;0.00;0.00;;;13.00;90.00;;;;;;5017830;28;20041;-68
2023/08/31 03:52:32;;;;;;;0.00;0.00;;;13.10;89.90;;;;;;5031042;28;20053;-67
2023/08/31 03:54:57;;;;;;;0.00;0.00;;;13.10;89.80;;;;;;5025546;28;20067;-68
2023/08/31 03:57:23;;;;;;;0.00;0.00;;;13.00;89.70;;;;;;5014745;28;20037;-68
2023/08/31 03:59:49;;;;;;;0.00;0.00;;;13.00;89.60;;;;;;5031208;28;20136;-68
2023/08/31 04:02:14;;;;;;;0.00;0.00;;;13.00;89.50;;;;;;5030286;28;20041;-68
2023/08/31 04:04:40;;;;;;;0.00;0.00;;;13.00;89.50;;;;;;5030969;28;20195;-68
2023/08/31 04:07:08;;;;;;;0.00;0.00;;;13.00;89.50;;;;;;5030838;28;20099;-68
2023/08/31 04:09:34;;;;;;;0.00;0.00;;;13.00;89.40;;;;;;5013425;28;20047;-68
2023/08/31 04:12:00;;;;;;;0.00;0.00;;;12.90;89.40;;;;;;5030062;28;20628;-68
2023/08/31 04:14:28;;;;;;;0.00;0.00;;;12.90;89.20;;;;;;5013232;28;20099;-68
2023/08/31 04:16:55;;;;;;;0.00;0.00;;;12.90;89.30;;;;;;5030583;28;20081;-68
2023/08/31 04:19:20;;;;;;;0.00;0.00;;;12.80;89.20;;;;;;5030801;28;20045;-68
2023/08/31 04:21:46;;;;;;;0.00;0.00;;;12.80;89.10;;;;;;5030051;28;20041;-68
2023/08/31 04:24:12;;;;;;;0.00;0.00;;;12.80;89.10;;;;;;5030615;28;20048;-67
2023/08/31 04:26:37;;;;;;;0.00;0.00;;;12.80;89.00;;;;;;5030925;28;20056;-68
2023/08/31 04:29:05;;;;;;;0.00;0.00;;;12.70;89.00;;;;;;5030788;28;20046;-68
2023/08/31 04:31:31;;;;;;;0.00;0.00;;;12.70;88.90;;;;;;5027695;28;20615;-67
2023/08/31 04:33:57;;;;;;;0.00;0.00;;;12.70;88.90;;;;;;5010793;28;20052;-70
2023/08/31 04:36:22;;;;;;;0.00;0.00;;;12.70;88.80;;;;;;5009681;28;20058;-70
2023/08/31 04:38:49;;;;;;;0.00;0.00;;;12.70;88.70;;;;;;5011961;28;20042;-70
2023/08/31 04:41:15;;;;;;;0.00;0.00;;;12.70;88.60;;;;;;5026721;28;20050;-70
2023/08/31 04:43:40;;;;;;;0.00;0.00;;;12.70;88.40;;;;;;5029823;28;20042;-70
2023/08/31 04:46:06;;;;;;;0.00;0.00;;;12.70;88.40;;;;;;5030235;28;20048;-70
2023/08/31 04:48:32;;;;;;;0.00;0.00;;;12.70;88.40;;;;;;5011750;28;20501;-70
2023/08/31 04:50:58;;;;;;;0.00;0.00;;;12.70;88.30;;;;;;5029745;28;20521;-69
2023/08/31 04:53:24;;;;;;;0.00;0.00;;;12.70;88.20;;;;;;5030014;28;20056;-70
2023/08/31 04:55:49;;;;;;;0.10;0.10;;;12.70;88.10;;;;;;5029401;28;20451;-70
2023/08/31 04:58:15;;;;;;;0.00;0.00;;;12.70;88.00;;;;;;5023448;28;20053;-67
2023/08/31 05:00:40;;;;;;;0.00;0.00;;;12.70;88.00;;;;;;5014822;28;20045;-67
2023/08/31 05:03:06;;;;;;;0.00;0.00;;;12.70;87.90;;;;;;5004181;28;20049;-68
2023/08/31 05:05:32;;;;;;;0.10;0.10;;;12.70;87.90;;;;;;5023744;28;20081;-68
2023/08/31 05:07:58;;;;;;;0.00;0.00;;;12.70;87.70;;;;;;4987802;28;20417;-69
2023/08/31 05:10:24;;;;;;;0.00;0.00;;;12.80;87.60;;;;;;4983341;28;20049;-69
2023/08/31 05:12:50;;;;;;;0.00;0.00;;;12.80;87.50;;;;;;5023559;28;20149;-69
2023/08/31 05:15:16;;;;;;;0.00;0.00;;;12.80;87.40;;;;;;5028584;28;20045;-69
2023/08/31 05:17:42;;;;;;;0.00;0.00;;;12.70;87.30;;;;;;5020961;28;20424;-68
2023/08/31 05:20:09;;;;;;;0.00;0.00;;;12.60;87.10;;;;;;5009316;28;20137;-69
2023/08/31 05:22:35;;;;;;;0.10;0.10;;;12.60;87.10;;;;;;4992503;28;20085;-69
2023/08/31 05:25:04;;;;;;;0.00;0.00;;;12.60;86.90;;;;;;4976236;28;20104;-69
2023/08/31 05:27:30;;;;;;;0.00;0.00;;;12.60;87.10;;;;;;5028609;28;20045;-69
2023/08/31 05:29:55;;;;;;;0.00;0.00;;;12.60;87.10;;;;;;5029588;28;20056;-68
2023/08/31 05:32:21;;;;;;;0.00;0.00;;;12.60;87.20;;;;;;4995060;28;20045;-68
2023/08/31 05:34:46;;;;;;;0.00;0.00;;;12.60;87.20;;;;;;5028645;28;20045;-69
2023/08/31 05:37:13;;;;;;;0.00;0.00;;;12.60;87.20;;;;;;5028922;28;20099;-69
2023/08/31 05:39:39;;;;;;;0.00;0.00;;;12.60;87.20;;;;;;5016711;28;20049;-68
2023/08/31 05:42:04;;;;;;;0.00;0.00;;;12.70;87.20;;;;;;5023866;28;20046;-69
2023/08/31 05:44:30;;;;;;;0.00;0.00;;;12.80;87.20;;;;;;5029304;28;20042;-69
2023/08/31 05:46:56;;;;;;;0.00;0.00;;;12.70;87.10;;;;;;5028035;28;20095;-68
2023/08/31 05:49:21;;;;;;;0.00;0.00;;;12.80;87.00;;;;;;5028870;28;20041;-68
2023/08/31 05:51:47;;;;;;;0.00;0.00;;;12.90;87.00;;;;;;5027490;28;20053;-68
2023/08/31 05:54:13;;;;;;;0.00;0.00;;;12.90;87.00;;;;;;5028914;28;20080;-69
2023/08/31 05:56:39;;;;;;;0.00;0.00;;;13.00;86.90;;;;;;5029025;28;20413;-68
2023/08/31 05:59:06;;;;;;;0.00;0.00;;;13.00;86.80;;;;;;5028945;28;20073;-69
2023/08/31 06:01:32;;;;;;;0.00;0.00;;;13.00;86.80;;;;;;5028279;28;20045;-68
2023/08/31 06:03:57;;;;;;;0.00;0.00;;;13.10;86.80;;;;;;5022631;28;20494;-68
2023/08/31 06:06:23;;;;;;;0.00;0.00;;;13.10;86.90;;;;;;5028847;28;20516;-69
2023/08/31 06:08:49;;;;;;;0.00;0.00;;;13.10;86.80;;;;;;5028722;28;20045;-68
2023/08/31 06:11:15;;;;;;;0.00;0.00;;;13.10;86.90;;;;;;5029136;28;20042;-68
2023/08/31 06:13:40;;;;;;;0.00;0.00;;;13.20;86.90;;;;;;5028456;28;20525;-68
2023/08/31 06:16:06;;;;;;;0.00;0.00;;;13.30;86.90;;;;;;5028416;28;20132;-68
2023/08/31 06:18:32;;;;;;;0.00;0.00;;;13.30;86.90;;;;;;5028560;28;20049;-69
2023/08/31 06:20:58;;;;;;;0.00;0.00;;;13.40;86.90;;;;;;4995054;28;20484;-69
2023/08/31 06:23:23;;;;;;;0.00;0.00;;;13.50;86.90;;;;;;5028058;28;20477;-72
2023/08/31 06:25:49;;;;;;;0.28;0.22;;;13.60;86.90;;;;;;5006701;28;20096;-68
2023/08/31 06:28:15;;;;;;;0.00;0.00;;;13.60;86.90;;;;;;5009339;28;20049;-69
2023/08/31 06:30:46;;;;;;;0.00;0.00;;;13.70;86.70;;;;;;4991285;28;20128;-69
2023/08/31 06:33:15;;;;;;;0.25;0.25;;;13.70;86.50;;;;;;5009142;28;20088;-69
2023/08/31 06:35:41;;;;;;;0.00;0.00;;;13.80;86.50;;;;;;5016716;28;20038;-68
2023/08/31 06:38:07;;;;;;;0.00;0.00;;;13.80;86.20;;;;;;5028717;28;20053;-68
2023/08/31 06:40:33;;;;;;;0.00;0.00;;;13.90;86.10;;;;;;5027749;28;20080;-69
2023/08/31 06:42:59;;;;;;;0.00;0.00;;;14.00;85.80;;;;;;5011106;28;20045;-69
2023/08/31 06:45:25;;;;;;;0.00;0.00;;;14.00;85.90;;;;;;5025391;28;20050;-69
2023/08/31 06:47:50;;;;;;;0.00;0.00;;;14.10;85.80;;;;;;5020888;28;20049;-69
2023/08/31 06:50:16;;;;;;;0.00;0.00;;;14.10;85.80;;;;;;5027124;28;20057;-69
2023/08/31 06:52:42;;;;;;;0.00;0.00;;;14.20;85.90;;;;;;5024971;28;20425;-69
2023/08/31 06:55:10;;;;;;;0.00;0.00;;;14.30;85.90;;;;;;5026355;28;20079;-70
2023/08/31 06:57:36;;;;;;;0.00;0.00;;;14.40;85.90;;;;;;5025668;28;20049;-72
2023/08/31 07:00:03;;;;;;;0.00;0.00;;;14.40;85.80;;;;;;5029748;28;20132;-71
2023/08/31 07:02:29;;;;;;;0.00;0.00;;;14.50;86.00;;;;;;5022707;28;20049;-72
2023/08/31 07:04:55;;;;;;;0.00;0.00;;;14.60;86.10;;;;;;5031198;28;20382;-72
2023/08/31 07:07:20;;;;;;;0.00;0.00;;;14.60;86.00;;;;;;5030411;28;20049;-69
2023/08/31 07:09:48;;;;;;;0.00;0.00;;;14.70;86.10;;;;;;5021977;28;20041;-68
2023/08/31 07:12:14;;;;;;;0.10;0.10;;;14.80;86.20;;;;;;5022060;28;20057;-67
2023/08/31 07:14:39;;;;;;;0.10;0.10;;;14.80;86.40;;;;;;5011855;28;20075;-68
2023/08/31 07:17:05;;;;;;;0.00;0.00;;;14.90;86.20;;;;;;5020075;28;20464;-68
2023/08/31 07:19:31;;;;;;;0.00;0.00;;;15.00;86.10;;;;;;5030077;28;20046;-68
2023/08/31 07:21:57;;;;;;;0.03;0.03;;;15.10;85.60;;;;;;5010928;28;20577;-68
2023/08/31 07:24:24;;;;;;;0.00;0.00;;;15.20;85.40;;;;;;5009976;28;20148;-68
2023/08/31 07:26:50;;;;;;;0.00;0.00;;;15.30;85.40;;;;;;5011889;28;20517;-68
2023/08/31 07:29:16;;;;;;;0.10;0.10;;;15.30;85.00;;;;;;5029774;28;20045;-68
2023/08/31 07:31:42;;;;;;;0.00;0.00;;;15.40;84.60;;;;;;5013470;28;20048;-69
2023/08/31 07:34:07;;;;;;;0.00;0.00;;;15.50;83.40;;;;;;5031114;28;20072;-68
2023/08/31 07:36:33;;;;;;;0.10;0.10;;;15.60;83.50;;;;;;5030148;28;21878;-68
2023/08/31 07:38:59;;;;;;;0.00;0.00;;;15.60;82.80;;;;;;5029325;28;20049;-68
2023/08/31 07:41:25;;;;;;;0.00;0.00;;;15.70;81.60;;;;;;5030065;28;20567;-68
2023/08/31 07:43:50;;;;;;;0.00;0.00;;;15.70;81.00;;;;;;5028926;28;20050;-68
2023/08/31 07:46:17;;;;;;;0.00;0.00;;;15.80;79.60;;;;;;5030852;28;20083;-68
2023/08/31 07:48:43;;;;;;;0.00;0.00;;;16.00;80.40;;;;;;5021293;28;20506;-68
2023/08/31 07:51:09;;;;;;;0.00;0.00;;;16.00;79.50;;;;;;5028219;28;20100;-68
2023/08/31 07:53:34;;;;;;;0.00;0.00;;;16.10;79.70;;;;;;5029229;28;20049;-68
2023/08/31 07:56:00;;;;;;;0.00;0.00;;;16.10;79.70;;;;;;5028975;28;20057;-69
2023/08/31 07:58:26;;;;;;;0.00;0.00;;;16.20;79.60;;;;;;5029796;28;20058;-69
2023/08/31 08:00:56;;;;;;;0.00;0.00;;;16.20;80.40;;;;;;5027005;28;20056;-68
2023/08/31 08:03:22;;;;;;;0.00;0.00;;;16.10;79.10;;;;;;5027164;28;20116;-68
2023/08/31 08:05:48;;;;;;;0.00;0.00;;;16.10;79.30;;;;;;5029519;28;20744;-69
2023/08/31 08:08:14;;;;;;;0.00;0.00;;;16.00;79.70;;;;;;5029530;28;20140;-69
2023/08/31 08:10:40;;;;;;;0.00;0.00;;;16.10;80.20;;;;;;5029845;28;20498;-69
2023/08/31 08:13:05;;;;;;;0.00;0.00;;;16.10;79.10;;;;;;5013085;28;20445;-68
2023/08/31 08:15:31;;;;;;;0.00;0.00;;;16.20;79.90;;;;;;5012975;28;20050;-69
2023/08/31 08:17:57;;;;;;;11.98;1.85;;;16.20;81.20;;;;;;5027398;28;20045;-69
2023/08/31 08:20:23;;;;;;;0.00;0.00;;;16.10;81.80;;;;;;5028919;28;20397;-69
2023/08/31 08:22:52;;;;;;;0.00;0.00;;;16.00;80.90;;;;;;5029982;28;20060;-68
2023/08/31 08:25:21;;;;;;;0.00;0.00;;;15.90;81.00;;;;;;5021887;28;20049;-69
2023/08/31 08:27:47;;;;;;;0.00;0.00;;;15.80;81.30;;;;;;5028526;28;20041;-69
2023/08/31 08:30:15;;;;;;;0.00;0.00;;;15.70;80.90;;;;;;5006106;28;20054;-69
2023/08/31 08:32:41;;;;;;;0.22;0.22;;;15.80;81.30;;;;;;5011061;28;20041;-69
2023/08/31 08:35:07;;;;;;;0.00;0.00;;;15.80;80.90;;;;;;5028817;28;20037;-69
2023/08/31 08:37:33;;;;;;;0.00;0.00;;;15.90;80.90;;;;;;5029162;28;20046;-69
2023/08/31 08:39:59;;;;;;;0.00;0.00;;;16.00;81.20;;;;;;5016849;28;20060;-69
2023/08/31 08:42:25;;;;;;;0.00;0.00;;;16.10;80.70;;;;;;5021974;28;20037;-69
2023/08/31 08:44:51;;;;;;;0.00;0.00;;;16.10;79.00;;;;;;5011640;28;20050;-68
2023/08/31 08:47:20;;;;;;;0.00;0.00;;;16.20;77.80;;;;;;5009169;28;20393;-68
2023/08/31 08:49:47;;;;;;;0.00;0.00;;;16.30;76.90;;;;;;5028508;28;20289;-69
2023/08/31 08:52:14;;;;;;;0.00;0.00;;;16.40;77.70;;;;;;5028878;28;20133;-69
2023/08/31 08:54:40;;;;;;;0.00;0.00;;;16.50;77.60;;;;;;5015275;28;20093;-68
2023/08/31 08:57:06;;;;;;;0.00;0.00;;;16.60;77.70;;;;;;5026895;28;20069;-66
2023/08/31 08:59:31;;;;;;;0.00;0.00;;;16.80;78.60;;;;;;5027480;28;20037;-68
2023/08/31 09:01:57;;;;;;;0.10;0.10;;;16.80;78.40;;;;;;5027866;28;20137;-69
2023/08/31 09:04:23;;;;;;;0.00;0.00;;;16.70;74.40;;;;;;5011716;28;20056;-68
2023/08/31 09:06:51;;;;;;;0.00;0.00;;;16.80;74.50;;;;;;5030158;28;20052;-69
2023/08/31 09:09:16;;;;;;;0.00;0.00;;;16.70;74.50;;;;;;5029660;28;20047;-70
2023/08/31 09:11:43;;;;;;;0.00;0.00;;;16.70;74.50;;;;;;5029565;28;20148;-69
2023/08/31 09:14:20;;;;;;;0.00;0.00;;;16.70;74.50;;;;;;5030131;28;20068;-70
2023/08/31 09:16:48;;;;;;;0.08;0.08;;;16.70;75.00;;;;;;5029850;28;20050;-70
2023/08/31 09:19:27;;;;;;;0.00;0.00;;;16.80;72.40;;;;;;5029583;28;20045;-69
2023/08/31 09:21:56;;;;;;;0.00;0.00;;;16.90;73.40;;;;;;5028487;28;20058;-69
2023/08/31 09:24:23;;;;;;;0.10;0.10;;;17.10;74.50;;;;;;5030494;28;20045;-70
2023/08/31 09:26:55;;;;;;;0.00;0.00;;;17.10;73.40;;;;;;5029924;28;20060;-69
2023/08/31 09:29:21;;;;;;;0.00;0.00;;;17.10;74.00;;;;;;5029252;28;20041;-70
2023/08/31 09:31:47;;;;;;;0.00;0.00;;;17.10;74.70;;;;;;5029655;28;20045;-70
2023/08/31 09:34:16;;;;;;;0.08;0.08;;;16.90;72.90;;;;;;5029580;28;20041;-70
2023/08/31 09:36:43;;;;;;;0.00;0.00;;;16.90;72.90;;;;;;5000706;28;20073;-70
2023/08/31 09:39:09;;;;;;;0.00;0.00;;;17.00;74.70;;;;;;5025888;28;20045;-70
2023/08/31 09:41:35;;;;;;;0.00;0.00;;;17.10;74.30;;;;;;5029584;28;20103;-70
2023/08/31 09:44:18;;;;;;;0.00;0.00;;;17.10;75.30;;;;;;5027812;28;20042;-67
2023/08/31 09:46:44;;;;;;;0.00;0.00;;;17.20;75.50;;;;;;5026254;28;20038;-66
2023/08/31 09:49:14;;;;;;;0.03;0.03;;;17.30;76.00;;;;;;5010193;28;20486;-66
2023/08/31 09:51:44;;;;;;;0.00;0.00;;;17.30;75.80;;;;;;5028117;28;20445;-66
2023/08/31 09:54:14;;;;;;;0.20;0.20;;;17.30;76.00;;;;;;5027364;28;20047;-66
2023/08/31 09:56:42;;;;;;;0.00;0.00;;;17.30;76.80;;;;;;5015823;28;20045;-66
2023/08/31 09:59:09;;;;;;;0.00;0.00;;;17.20;77.80;;;;;;5028642;28;20409;-65
2023/08/31 10:01:35;;;;;;;0.00;0.00;;;17.20;77.70;;;;;;5008038;28;20495;-66
2023/08/31 10:04:02;;;;;;;0.00;0.00;;;17.10;77.50;;;;;;5028052;28;20045;-65
2023/08/31 10:06:28;;;;;;;0.00;0.00;;;17.10;77.20;;;;;;5007598;28;20677;-65
2023/08/31 10:08:54;;;;;;;0.35;0.35;;;17.10;77.10;;;;;;5023598;28;20164;-66
2023/08/31 10:11:22;;;;;;;0.00;0.00;;;17.10;76.50;;;;;;5026374;28;20083;-65
2023/08/31 10:13:49;;;;;;;0.00;0.00;;;17.10;76.20;;;;;;5015628;28;20422;-65
2023/08/31 10:16:15;;;;;;;0.00;0.00;;;17.20;74.30;;;;;;5003667;28;20573;-66
2023/08/31 10:18:41;;;;;;;0.00;0.00;;;17.30;73.50;;;;;;5017476;28;20088;-66
2023/08/31 10:21:07;;;;;;;0.85;0.85;;;17.50;74.10;;;;;;5027223;28;20042;-66
2023/08/31 10:23:35;;;;;;;0.00;0.00;;;17.40;72.00;;;;;;5027945;28;20129;-66
2023/08/31 10:26:03;;;;;;;0.13;0.13;;;17.20;71.20;;;;;;5026936;28;20072;-66
2023/08/31 10:28:29;;;;;;;0.00;0.00;;;17.10;73.00;;;;;;5028403;28;20056;-66
2023/08/31 10:31:05;;;;;;;0.00;0.00;;;17.00;74.00;;;;;;5026676;28;20429;-66
2023/08/31 10:33:44;;;;;;;0.00;0.00;;;16.80;75.40;;;;;;5028843;28;20041;-67
2023/08/31 10:36:18;;;;;;;0.00;0.00;;;16.90;76.40;;;;;;5031484;28;20057;-65
2023/08/31 10:38:46;;;;;;;0.00;0.00;;;17.00;77.50;;;;;;5013869;28;20049;-65
2023/08/31 10:41:11;;;;;;;0.00;0.00;;;17.10;77.40;;;;;;5030964;28;20050;-65
2023/08/31 10:43:52;;;;;;;0.00;0.00;;;17.10;76.90;;;;;;5031792;28;20048;-68
2023/08/31 10:46:39;;;;;;;0.00;0.00;;;17.10;76.70;;;;;;5026356;28;20049;-65
2023/08/31 10:49:10;;;;;;;0.00;0.00;;;17.10;77.60;;;;;;5013114;28;20727;-65
2023/08/31 10:51:50;;;;;;;0.00;0.00;;;17.10;77.10;;;;;;5031894;28;20788;-66
2023/08/31 10:54:23;;;;;;;0.00;0.00;;;17.10;74.40;;;;;;5028558;28;20045;-65
2023/08/31 10:57:04;;;;;;;0.00;0.00;;;17.10;72.10;;;;;;5031088;28;20049;-65
2023/08/31 10:59:52;;;;;;;0.00;0.00;;;17.40;72.40;;;;;;5032086;28;20045;-65
2023/08/31 11:02:36;;;;;;;0.00;0.00;;;17.60;72.00;;;;;;5014120;28;20053;-64
2023/08/31 11:05:14;;;;;;;2.10;1.17;;;17.80;70.80;;;;;;5031454;28;20045;-66
2023/08/31 11:07:44;;;;;;;0.00;0.00;;;17.90;71.10;;;;;;5031838;28;20119;-65
2023/08/31 11:10:23;;;;;;;0.00;0.00;;;18.00;70.60;;;;;;5031328;28;20056;-65
2023/08/31 11:12:50;;;;;;;0.00;0.00;;;18.10;69.90;;;;;;5031389;28;20041;-65
2023/08/31 11:15:20;;;;;;;0.00;0.00;;;18.00;71.50;;;;;;5013065;28;20056;-64
2023/08/31 11:17:46;;;;;;;4.03;1.20;;;18.00;72.30;;;;;;5029599;28;20064;-65
2023/08/31 11:20:17;;;;;;;0.00;0.00;;;18.10;72.10;;;;;;5030103;28;20056;-64
2023/08/31 11:22:45;;;;;;;0.00;0.00;;;18.30;70.40;;;;;;4995768;28;20108;-65
2023/08/31 11:25:12;;;;;;;0.00;0.00;;;18.50;69.40;;;;;;5031206;28;20537;-65
2023/08/31 11:27:38;;;;;;;0.00;0.00;;;18.60;68.80;;;;;;4996862;28;20046;-66
2023/08/31 11:30:12;;;;;;;0.00;0.00;;;18.60;68.20;;;;;;5025961;28;20038;-65
2023/08/31 11:32:52;;;;;;;0.10;0.10;;;18.60;69.10;;;;;;5031146;28;20041;-66
2023/08/31 11:35:20;;;;;;;0.00;0.00;;;18.80;69.50;;;;;;5028477;28;20464;-66
2023/08/31 11:37:50;;;;;;;0.08;0.08;;;18.70;70.10;;;;;;5011825;28;20038;-67
2023/08/31 11:40:16;;;;;;;0.00;0.00;;;18.80;70.70;;;;;;5030016;28;20099;-66
2023/08/31 11:42:42;;;;;;;0.00;0.00;;;18.80;72.20;;;;;;4987173;28;20046;-66
2023/08/31 11:45:09;;;;;;;0.00;0.00;;;18.70;71.60;;;;;;5011026;28;20446;-66
2023/08/31 11:47:35;;;;;;;0.00;0.00;;;18.90;73.50;;;;;;5028680;28;20045;-66
2023/08/31 11:50:04;;;;;;;0.00;0.00;;;19.00;70.80;;;;;;5030194;28;20042;-66
2023/08/31 11:52:31;;;;;;;0.00;0.00;;;19.10;70.10;;;;;;5030330;28;20049;-65
2023/08/31 11:54:56;;;;;;;0.10;0.10;;;19.20;68.30;;;;;;5028703;28;20453;-67
2023/08/31 11:57:26;;;;;;;0.00;0.00;;;19.00;64.90;;;;;;5029967;28;20042;-70
2023/08/31 11:59:53;;;;;;;0.00;0.00;;;19.00;66.40;;;;;;5020656;28;20133;-70
2023/08/31 12:02:19;;;;;;;0.00;0.00;;;18.80;65.90;;;;;;5020113;28;20140;-70
2023/08/31 12:04:46;;;;;;;0.00;0.00;;;18.90;66.50;;;;;;5023006;28;20042;-69
2023/08/31 12:07:16;;;;;;;0.00;0.00;;;18.90;68.10;;;;;;5021556;28;20053;-69
2023/08/31 12:09:44;;;;;;;0.20;0.20;;;18.90;69.20;;;;;;5021425;28;20495;-68
2023/08/31 12:12:10;;;;;;;0.00;0.00;;;19.00;68.80;;;;;;5011875;28;20045;-68
2023/08/31 12:14:39;;;;;;;0.00;0.00;;;19.10;69.50;;;;;;5028380;28;20052;-68
2023/08/31 12:17:08;;;;;;;0.00;0.00;;;19.10;70.10;;;;;;5029906;28;20059;-68
2023/08/31 12:19:37;;;;;;;0.00;0.00;;;19.20;69.80;;;;;;5028784;28;20080;-68
2023/08/31 12:22:02;;;;;;;0.00;0.00;;;19.10;67.00;;;;;;5030130;28;20081;-69
2023/08/31 12:24:28;;;;;;;0.00;0.00;;;18.70;63.90;;;;;;5030275;28;20077;-69
2023/08/31 12:26:54;;;;;;;0.00;0.00;;;18.20;65.40;;;;;;5030519;28;20114;-69
2023/08/31 12:29:21;;;;;;;0.00;0.00;;;18.10;66.30;;;;;;5030402;28;20060;-69
2023/08/31 12:31:46;;;;;;;0.00;0.00;;;18.10;68.10;;;;;;5030219;28;20049;-69
2023/08/31 12:34:12;;;;;;;0.00;0.00;;;18.20;69.00;;;;;;5030657;28;20733;-70
2023/08/31 12:36:40;;;;;;;0.00;0.00;;;18.30;67.80;;;;;;5030312;28;20045;-69
2023/08/31 12:39:09;;;;;;;0.03;0.03;;;18.40;66.90;;;;;;5029552;28;20056;-68
2023/08/31 12:41:34;;;;;;;0.00;0.00;;;18.40;63.90;;;;;;5029522;28;20052;-68
2023/08/31 12:44:00;;;;;;;0.00;0.00;;;18.20;64.30;;;;;;5029606;28;20456;-68
2023/08/31 12:46:26;;;;;;;0.00;0.00;;;18.10;64.80;;;;;;5029648;28;20052;-69
2023/08/31 12:48:52;;;;;;;0.00;0.00;;;18.10;66.40;;;;;;5011709;28;20042;-68